Time;durP1;ratioP1;P1;durP2;ratioP2;P2;SDS_P1;SDS_P2;PMS_P1;PMS_P2;Temp;Humidity;BMP_temperature;BMP_pressure;BME280_temperature;BME280_humidity;BME280_pressure;Samples;Min_cycle;Max_cycle;Signal;HPM_P1;HPM_P2
2021/11/14 00:01:41;;;;;;;3.25;2.15;;;17.90;82.80;;;21.72;42.90;94503.00;6061745;19;20007;-58
2021/11/14 00:03:43;;;;;;;1.98;1.75;;;17.90;82.70;;;21.73;43.00;94496.44;6046334;19;20025;-58
2021/11/14 00:05:44;;;;;;;2.75;1.98;;;18.00;82.80;;;21.76;42.88;94495.78;6053402;19;20023;-59
2021/11/14 00:07:45;;;;;;;3.65;1.90;;;18.00;82.80;;;21.78;42.91;94497.03;6060444;19;20144;-58
2021/11/14 00:09:47;;;;;;;6.65;1.92;;;18.00;82.90;;;21.79;42.84;94500.53;6075085;19;20014;-58
2021/11/14 00:11:47;;;;;;;8.80;2.08;;;18.00;82.70;;;21.81;42.84;94501.00;6068586;19;20025;-58
2021/11/14 00:13:50;;;;;;;3.35;2.08;;;18.00;82.80;;;21.82;42.57;94499.84;6079541;19;20014;-62
2021/11/14 00:15:51;;;;;;;5.83;2.13;;;18.00;82.60;;;21.82;42.69;94503.38;6092679;19;20027;-62
2021/11/14 00:17:52;;;;;;;3.60;2.13;;;18.00;82.70;;;21.83;42.84;94491.38;6083860;19;20013;-63
2021/11/14 00:19:53;;;;;;;2.00;1.80;;;18.00;82.60;;;21.84;42.61;94489.47;6083728;19;20023;-61
2021/11/14 00:21:54;;;;;;;2.20;1.58;;;18.00;82.60;;;21.85;42.68;94491.84;6076039;19;20046;-62
2021/11/14 00:23:56;;;;;;;2.60;1.95;;;18.00;82.50;;;21.87;42.71;94488.78;6064584;19;20022;-62
2021/11/14 00:25:57;;;;;;;2.85;1.75;;;18.00;82.40;;;21.87;42.78;94495.00;6088308;19;20485;-62
2021/11/14 00:27:58;;;;;;;2.92;1.90;;;18.00;82.30;;;21.88;42.77;94493.09;6067536;19;20751;-62
2021/11/14 00:30:06;;;;;;;4.22;1.92;;;18.10;82.40;;;21.88;42.59;94495.78;6066972;19;20386;-62
2021/11/14 00:32:08;;;;;;;2.28;2.05;;;18.10;82.40;;;21.88;42.74;94491.16;6067338;19;20517;-61
2021/11/14 00:34:09;;;;;;;2.05;1.70;;;18.10;82.30;;;21.90;42.57;94490.81;6078543;19;20039;-63
2021/11/14 00:36:17;;;;;;;3.00;2.00;;;18.10;82.40;;;21.89;42.63;94491.97;6075716;19;20021;-62
2021/11/14 00:38:22;;;;;;;5.88;2.10;;;18.10;83.10;;;21.90;42.68;94493.53;6077866;19;20023;-62
2021/11/14 00:40:27;;;;;;;3.53;2.38;;;18.10;82.40;;;21.90;42.54;94496.25;6074869;19;20019;-62
2021/11/14 00:42:28;;;;;;;5.85;1.83;;;18.10;82.40;;;21.88;42.25;94502.03;6075919;19;20226;-61
2021/11/14 00:44:28;;;;;;;1.70;1.60;;;18.10;82.40;;;21.89;42.40;94497.38;6064800;19;20032;-62
2021/11/14 00:46:29;;;;;;;1.70;1.60;;;18.10;82.40;;;21.90;42.37;94504.41;6061890;19;20081;-60
2021/11/14 00:48:30;;;;;;;2.85;1.88;;;18.10;82.40;;;21.89;42.71;94503.59;6071221;19;20048;-62
2021/11/14 00:50:32;;;;;;;3.10;1.80;;;18.10;82.40;;;21.89;42.54;94505.53;6084270;19;20021;-62
2021/11/14 00:52:34;;;;;;;1.88;1.48;;;18.10;82.30;;;21.88;42.44;94496.59;6079076;19;20348;-62
2021/11/14 00:54:36;;;;;;;1.98;1.80;;;18.10;82.30;;;21.88;42.71;94504.72;6066589;19;20017;-62
2021/11/14 00:56:37;;;;;;;3.83;1.77;;;18.10;82.50;;;21.87;42.24;94497.72;6067045;19;20006;-62
2021/11/14 00:58:38;;;;;;;2.50;1.80;;;18.10;82.30;;;21.87;42.63;94505.06;6079803;19;20034;-60
2021/11/14 01:00:39;;;;;;;2.13;1.92;;;18.10;82.60;;;21.87;42.51;94510.50;6072228;19;20999;-62
2021/11/14 01:02:41;;;;;;;1.90;1.70;;;18.10;82.50;;;21.85;42.50;94502.69;6073982;19;20015;-62
2021/11/14 01:04:42;;;;;;;2.20;2.00;;;18.10;82.30;;;21.85;42.37;94507.31;6077791;19;20538;-62
2021/11/14 01:06:43;;;;;;;2.55;1.75;;;18.10;82.60;;;21.84;42.82;94505.75;6077168;19;20011;-61
2021/11/14 01:08:44;;;;;;;4.32;1.85;;;18.00;82.50;;;21.83;42.36;94506.88;6081290;19;21087;-61
2021/11/14 01:10:50;;;;;;;2.08;1.88;;;18.00;82.50;;;21.82;42.28;94506.06;6079824;19;20142;-61
2021/11/14 01:12:51;;;;;;;2.13;1.92;;;18.00;82.40;;;21.83;42.79;94512.31;6058400;19;20018;-62
2021/11/14 01:14:52;;;;;;;2.42;1.70;;;18.00;82.50;;;21.82;42.84;94502.56;6068738;19;20023;-63
2021/11/14 01:16:53;;;;;;;2.05;1.92;;;18.00;82.50;;;21.81;42.48;94509.13;6071174;19;20010;-62
2021/11/14 01:18:54;;;;;;;3.50;1.98;;;18.10;82.50;;;21.81;42.81;94514.56;6065543;19;20538;-61
2021/11/14 01:20:59;;;;;;;1.85;1.75;;;18.00;82.30;;;21.80;42.85;94510.25;6083923;19;20033;-62
2021/11/14 01:23:03;;;;;;;3.08;1.67;;;18.00;82.40;;;21.80;42.66;94510.25;6082471;19;20026;-62
2021/11/14 01:25:07;;;;;;;4.40;2.47;;;18.00;82.30;;;21.80;42.37;94512.97;6079903;19;20910;-61
2021/11/14 01:27:08;;;;;;;1.70;1.60;;;18.00;82.30;;;21.78;42.35;94507.88;6081944;19;20014;-62
2021/11/14 01:29:09;;;;;;;1.73;1.60;;;18.10;82.40;;;21.78;42.72;94507.88;6063259;19;20014;-62
2021/11/14 01:31:10;;;;;;;1.90;1.80;;;18.00;82.20;;;21.79;42.52;94511.38;6064846;19;20030;-62
2021/11/14 01:33:14;;;;;;;2.20;1.95;;;18.00;82.20;;;21.77;42.43;94511.72;6076483;19;20086;-62
2021/11/14 01:35:17;;;;;;;2.83;1.67;;;18.00;82.10;;;21.77;42.39;94505.50;6043805;19;20991;-62
2021/11/14 01:37:18;;;;;;;1.85;1.70;;;18.00;82.20;;;21.76;42.67;94512.06;6069183;19;20037;-61
2021/11/14 01:39:18;;;;;;;1.50;1.40;;;18.00;82.20;;;21.75;42.85;94503.13;6077165;19;20007;-61
2021/11/14 01:41:19;;;;;;;1.88;1.73;;;18.00;82.30;;;21.76;42.50;94514.78;6084586;19;20050;-61
2021/11/14 01:43:25;;;;;;;2.67;1.58;;;18.00;82.40;;;21.74;42.76;94512.38;6069463;19;20010;-62
2021/11/14 01:45:27;;;;;;;1.60;1.50;;;18.00;82.40;;;21.75;42.59;94505.84;6086564;19;20035;-63
2021/11/14 01:47:28;;;;;;;1.73;1.50;;;18.00;82.50;;;21.75;42.59;94508.56;6082268;19;20028;-62
2021/11/14 01:49:29;;;;;;;2.60;1.65;;;18.00;82.60;;;21.76;42.51;94514.78;6076327;19;20015;-62
2021/11/14 01:51:30;;;;;;;1.55;1.45;;;18.00;82.80;;;21.77;42.69;94505.50;6083192;19;20522;-63
2021/11/14 01:53:32;;;;;;;3.30;1.90;;;18.00;82.80;;;21.78;42.42;94515.22;6078554;19;20950;-62
2021/11/14 01:55:35;;;;;;;1.70;1.60;;;18.00;82.80;;;21.79;42.75;94509.47;6067839;19;20022;-62
2021/11/14 01:57:37;;;;;;;1.60;1.50;;;18.00;83.00;;;21.79;42.45;94505.97;6059531;19;20018;-62
2021/11/14 01:59:38;;;;;;;2.33;2.13;;;18.10;83.00;;;21.80;42.85;94510.25;6085883;19;20366;-62
2021/11/14 02:01:39;;;;;;;3.13;1.85;;;18.00;82.80;;;21.81;42.68;94512.63;6086608;19;20022;-62
2021/11/14 02:03:46;;;;;;;2.05;1.88;;;18.00;83.00;;;21.82;42.82;94508.78;6062964;19;20034;-62
2021/11/14 02:05:47;;;;;;;1.55;1.45;;;18.00;82.90;;;21.83;42.47;94515.00;6056915;19;20006;-62
2021/11/14 02:07:57;;;;;;;1.63;1.52;;;18.10;83.10;;;21.83;42.75;94515.00;6073349;19;20102;-62
2021/11/14 02:09:58;;;;;;;1.58;1.48;;;18.00;82.90;;;21.83;42.72;94509.59;6081196;19;20732;-62
2021/11/14 02:12:00;;;;;;;1.60;1.50;;;18.10;82.90;;;21.84;42.97;94508.47;6078911;19;20014;-62
2021/11/14 02:14:01;;;;;;;1.52;1.42;;;18.10;82.90;;;21.83;42.74;94501.44;6075515;19;20014;-62
2021/11/14 02:16:03;;;;;;;1.45;1.35;;;18.10;82.90;;;21.84;42.67;94505.75;6075688;19;20014;-62
2021/11/14 02:18:08;;;;;;;1.70;1.60;;;18.10;82.90;;;21.84;42.68;94500.31;6078829;19;20124;-62
2021/11/14 02:20:13;;;;;;;5.10;1.90;;;18.10;83.00;;;21.84;42.77;94495.69;6079871;19;20010;-63
2021/11/14 02:22:14;;;;;;;2.83;1.77;;;18.10;82.90;;;21.84;42.79;94501.09;6084771;19;20019;-61
2021/11/14 02:24:15;;;;;;;1.70;1.60;;;18.10;82.90;;;21.84;42.96;94503.03;6087759;19;20561;-62
2021/11/14 02:26:16;;;;;;;2.20;1.70;;;18.10;83.00;;;21.83;42.49;94504.94;6078539;19;20108;-62
2021/11/14 02:28:18;;;;;;;2.75;1.33;;;18.10;82.80;;;21.83;42.93;94504.16;6086350;19;20018;-62
2021/11/14 02:30:21;;;;;;;1.52;1.42;;;18.10;82.80;;;21.83;42.44;94512.31;6086041;19;20602;-62
2021/11/14 02:32:22;;;;;;;1.63;1.52;;;18.10;82.80;;;21.82;42.58;94500.66;6086734;19;20014;-62
2021/11/14 02:34:23;;;;;;;1.45;1.35;;;18.10;82.80;;;21.81;43.00;94501.00;6084105;19;20031;-62
2021/11/14 02:36:24;;;;;;;1.80;1.70;;;18.10;82.60;;;21.81;42.99;94492.84;6089136;19;20129;-62
2021/11/14 02:38:27;;;;;;;1.50;1.40;;;18.10;82.80;;;21.82;42.92;94497.16;6085177;19;20048;-62
2021/11/14 02:40:29;;;;;;;2.83;1.30;;;18.10;82.80;;;21.81;42.58;94506.41;6086495;19;20070;-62
2021/11/14 02:42:29;;;;;;;1.60;1.50;;;18.10;82.70;;;21.81;42.67;94501.78;6077232;19;20363;-62
2021/11/14 02:44:30;;;;;;;1.70;1.60;;;18.10;82.80;;;21.80;42.79;94499.41;6075004;19;20065;-62
2021/11/14 02:46:31;;;;;;;1.58;1.48;;;18.10;82.70;;;21.80;42.58;94502.13;6085482;19;20011;-62
2021/11/14 02:48:34;;;;;;;1.33;1.23;;;18.10;82.80;;;21.80;42.62;94502.13;6079971;19;20022;-62
2021/11/14 02:50:36;;;;;;;1.83;1.73;;;18.00;82.70;;;21.80;42.58;94499.41;6088915;19;20057;-62
2021/11/14 02:52:38;;;;;;;1.50;1.40;;;18.10;82.70;;;21.79;42.65;94495.91;6077085;19;20023;-62
2021/11/14 02:54:40;;;;;;;1.40;1.30;;;18.10;82.60;;;21.78;42.68;94502.44;6067616;19;20082;-62
2021/11/14 02:56:42;;;;;;;3.53;1.63;;;18.10;82.60;;;21.78;42.52;94497.03;6078118;19;20018;-62
2021/11/14 02:58:44;;;;;;;2.17;1.33;;;18.10;82.80;;;21.78;42.89;94502.44;6081615;19;20047;-62
2021/11/14 03:01:22;;;;;;;2.95;1.58;;;18.10;83.00;;;21.78;42.63;94498.94;6079840;19;20011;-62
2021/11/14 03:03:23;;;;;;;1.50;1.40;;;18.10;82.60;;;21.77;42.64;94497.38;6083072;19;21097;-62
2021/11/14 03:05:24;;;;;;;2.97;1.60;;;18.10;82.70;;;21.75;42.94;94497.69;6085360;19;20002;-62
2021/11/14 03:07:25;;;;;;;1.20;1.10;;;18.10;82.50;;;21.77;42.44;94500.06;6082867;19;20486;-62
2021/11/14 03:09:26;;;;;;;1.70;1.60;;;18.10;82.60;;;21.75;43.03;94494.19;6091070;19;20030;-62
2021/11/14 03:11:27;;;;;;;3.97;1.20;;;18.10;82.70;;;21.75;42.90;94502.34;6079116;19;20014;-62
2021/11/14 03:13:28;;;;;;;1.58;1.48;;;18.10;82.90;;;21.74;42.79;94506.97;6074858;19;20014;-62
2021/11/14 03:15:34;;;;;;;1.50;1.40;;;18.10;83.00;;;21.75;42.92;94496.91;6076929;19;20109;-62
2021/11/14 03:17:35;;;;;;;1.48;1.38;;;18.10;83.10;;;21.74;43.11;94498.03;6083062;19;21415;-61
2021/11/14 03:19:36;;;;;;;1.88;1.30;;;18.00;83.20;;;21.74;43.15;94508.88;6084169;19;20039;-62
2021/11/14 03:21:36;;;;;;;1.35;1.25;;;18.10;83.20;;;21.75;43.08;94507.75;6081081;19;20413;-62
2021/11/14 03:23:38;;;;;;;1.55;1.42;;;18.00;83.20;;;21.75;43.14;94505.03;6085114;19;20010;-62
2021/11/14 03:25:39;;;;;;;1.50;1.40;;;18.00;83.50;;;21.77;42.92;94506.28;6081024;19;20014;-62
2021/11/14 03:27:40;;;;;;;1.55;1.45;;;18.10;83.40;;;21.78;42.76;94507.09;6072226;19;20530;-62
2021/11/14 03:29:41;;;;;;;3.65;1.40;;;18.10;83.40;;;21.77;42.87;94500.88;6076666;19;20011;-62
2021/11/14 03:31:42;;;;;;;1.60;1.50;;;18.10;83.40;;;21.78;42.64;94504.38;6087150;19;20018;-62
2021/11/14 03:33:43;;;;;;;1.40;1.30;;;18.10;83.40;;;21.79;43.12;94503.25;6083668;19;20479;-58
2021/11/14 03:35:49;;;;;;;1.60;1.50;;;18.10;83.40;;;21.80;42.93;94507.53;6086781;19;20038;-59
2021/11/14 03:37:51;;;;;;;1.25;1.17;;;18.10;83.50;;;21.80;42.58;94511.06;6073971;19;20019;-57
2021/11/14 03:39:52;;;;;;;1.15;1.05;;;18.10;83.40;;;21.81;43.16;94504.50;6074123;19;20018;-57
2021/11/14 03:41:54;;;;;;;2.40;1.40;;;18.10;84.40;;;21.82;43.06;94503.38;6078152;19;20090;-56
2021/11/14 03:43:56;;;;;;;1.05;1.05;;;18.10;83.40;;;21.82;42.90;94506.06;6066107;19;20006;-58
2021/11/14 03:45:57;;;;;;;1.15;1.13;;;18.10;83.50;;;21.82;42.95;94503.38;6069378;19;20019;-59
2021/11/14 03:48:00;;;;;;;1.35;1.10;;;18.10;83.50;;;21.83;42.62;94506.88;6075639;19;20010;-57
2021/11/14 03:50:01;;;;;;;1.45;1.30;;;18.10;83.50;;;21.83;42.65;94510.38;6077788;19;20011;-58
2021/11/14 03:52:10;;;;;;;1.40;1.30;;;18.10;83.60;;;21.83;43.19;94512.31;6064109;19;19999;-59
2021/11/14 03:54:11;;;;;;;1.20;1.10;;;18.10;83.80;;;21.82;43.18;94508.00;6061222;19;20018;-58
2021/11/14 03:56:13;;;;;;;1.40;1.30;;;18.10;83.80;;;21.83;42.84;94509.59;6081603;19;20359;-61
2021/11/14 03:58:14;;;;;;;2.65;1.42;;;18.10;83.50;;;21.83;42.82;94504.16;6077347;19;20127;-61
2021/11/14 04:00:24;;;;;;;1.25;1.13;;;18.10;83.60;;;21.82;42.76;94508.00;6079250;19;20108;-61
2021/11/14 04:02:26;;;;;;;2.58;1.20;;;18.10;83.80;;;21.81;42.93;94504.50;6096807;19;20021;-61
2021/11/14 04:04:27;;;;;;;2.17;1.30;;;18.10;83.90;;;21.81;42.68;94511.84;6095034;19;20003;-61
2021/11/14 04:06:28;;;;;;;1.42;1.33;;;18.10;83.80;;;21.80;42.95;94513.75;6082012;19;20014;-61
2021/11/14 04:08:29;;;;;;;1.40;1.30;;;18.10;83.70;;;21.81;43.26;94511.84;6094646;19;20026;-61
2021/11/14 04:10:30;;;;;;;1.45;1.23;;;18.10;83.90;;;21.80;43.22;94512.97;6096768;19;21452;-62
2021/11/14 04:12:32;;;;;;;1.38;1.00;;;18.10;83.70;;;21.80;43.03;94516.47;6088324;19;20006;-61
2021/11/14 04:14:33;;;;;;;2.58;1.20;;;18.10;83.60;;;21.80;42.79;94508.34;6097743;19;20007;-61
2021/11/14 04:16:34;;;;;;;1.35;1.25;;;18.10;83.60;;;21.80;42.74;94518.41;6079958;19;20094;-61
2021/11/14 04:18:36;;;;;;;1.67;1.10;;;18.10;83.50;;;21.79;42.76;94512.19;6072848;19;20010;-61
2021/11/14 04:20:40;;;;;;;0.95;0.95;;;18.10;83.50;;;21.80;42.89;94521.09;6088481;19;20030;-61
2021/11/14 04:22:41;;;;;;;1.65;1.45;;;18.10;83.40;;;21.79;43.17;94511.38;6082989;19;20018;-62
2021/11/14 04:24:43;;;;;;;1.42;1.33;;;18.10;83.40;;;21.79;42.97;94511.38;6098010;19;20006;-62
2021/11/14 04:26:43;;;;;;;1.08;1.00;;;18.10;83.40;;;21.79;42.71;94514.09;6092489;19;20018;-62
2021/11/14 04:28:45;;;;;;;1.08;1.05;;;18.10;84.00;;;21.79;43.14;94516.81;6081041;19;20026;-63
2021/11/14 04:30:47;;;;;;;1.08;1.00;;;18.10;83.30;;;21.79;43.13;94512.19;6089868;19;20980;-62
2021/11/14 04:32:48;;;;;;;;;;;18.10;83.40;;;21.79;42.87;94516.81;6096346;19;20034;-61
2021/11/14 04:34:49;;;;;;;1.50;1.40;;;18.10;83.30;;;21.77;42.86;94517.16;6099831;19;19926;-62
2021/11/14 04:36:50;;;;;;;1.00;1.00;;;18.10;83.30;;;21.76;43.19;94518.28;6094310;19;20010;-62
2021/11/14 04:38:51;;;;;;;1.38;1.27;;;18.10;83.40;;;21.75;43.01;94513.19;6084407;19;20491;-62
2021/11/14 04:40:52;;;;;;;1.00;1.00;;;18.10;83.50;;;21.76;43.05;94517.47;6089834;19;20010;-61
2021/11/14 04:42:53;;;;;;;1.00;1.00;;;18.10;83.40;;;21.75;43.18;94511.25;6071309;19;20486;-62
2021/11/14 04:44:54;;;;;;;1.88;1.23;;;18.10;83.40;;;21.76;42.98;94512.06;6073719;19;20022;-63
2021/11/14 04:46:55;;;;;;;1.30;1.20;;;18.10;83.50;;;21.74;42.59;94506.97;6072708;19;21374;-62
2021/11/14 04:48:56;;;;;;;1.27;1.17;;;18.10;83.30;;;21.75;42.62;94510.47;6075264;19;20086;-62
2021/11/14 04:50:57;;;;;;;1.30;1.20;;;18.10;83.40;;;21.75;43.01;94515.91;6077991;19;20018;-62
2021/11/14 04:52:59;;;;;;;1.33;1.23;;;18.10;83.50;;;21.75;43.10;94513.97;6081670;19;20010;-62
2021/11/14 04:55:00;;;;;;;1.90;1.42;;;18.00;83.50;;;21.76;43.04;94514.78;6104568;19;20010;-62
2021/11/14 04:57:01;;;;;;;1.30;1.15;;;18.10;83.50;;;21.76;43.01;94514.78;6099281;19;20023;-62
2021/11/14 04:59:02;;;;;;;1.00;1.00;;;18.00;83.50;;;21.76;42.68;94514.78;6098775;19;20045;-62
2021/11/14 05:01:03;;;;;;;1.13;1.10;;;18.00;83.50;;;21.77;43.20;94516.34;6092473;19;20011;-62
2021/11/14 05:03:04;;;;;;;1.10;1.10;;;18.10;83.50;;;21.77;42.64;94513.63;6097131;19;20034;-62
2021/11/14 05:05:08;;;;;;;1.67;1.17;;;18.10;83.60;;;21.78;42.77;94518.72;6099573;19;20018;-62
2021/11/14 05:07:10;;;;;;;1.17;1.08;;;18.00;83.40;;;21.79;42.78;94516.81;6098277;19;20011;-62
2021/11/14 05:09:10;;;;;;;0.80;0.80;;;18.10;83.50;;;21.79;42.89;94517.59;6101579;19;20018;-62
2021/11/14 05:11:11;;;;;;;1.10;1.00;;;18.10;83.50;;;21.80;42.67;94523.81;6099892;19;20010;-62
2021/11/14 05:13:12;;;;;;;1.65;1.10;;;18.10;83.50;;;21.81;43.14;94525.41;6096907;19;20070;-62
2021/11/14 05:15:13;;;;;;;1.40;1.25;;;18.10;83.50;;;21.81;42.69;94517.28;6101252;19;20033;-62
2021/11/14 05:17:14;;;;;;;0.93;0.93;;;18.10;83.40;;;21.82;42.69;94524.28;6105358;19;20636;-62
2021/11/14 05:19:15;;;;;;;1.25;1.15;;;18.10;83.30;;;21.81;43.08;94528.13;6099259;19;20022;-61
2021/11/14 05:21:15;;;;;;;1.58;1.20;;;18.10;83.40;;;21.81;43.08;94528.91;6073165;19;20027;-61
2021/11/14 05:23:16;;;;;;;0.90;0.90;;;18.10;83.40;;;21.81;42.92;94528.13;6076985;19;20017;-61
2021/11/14 05:25:17;;;;;;;0.90;0.90;;;18.10;83.40;;;21.82;42.80;94529.72;6075721;19;20038;-62
2021/11/14 05:27:19;;;;;;;0.98;0.90;;;18.10;83.30;;;21.83;43.01;94531.28;6060004;19;20297;-62
2021/11/14 05:29:20;;;;;;;1.30;1.20;;;18.10;83.30;;;21.81;42.92;94528.91;6066343;19;20010;-62
2021/11/14 05:31:21;;;;;;;0.95;0.95;;;18.10;83.40;;;21.82;42.95;94530.50;6063792;19;20018;-61
2021/11/14 05:33:22;;;;;;;1.08;1.00;;;18.10;83.30;;;21.82;42.64;94530.50;6075915;19;21138;-62
2021/11/14 05:35:24;;;;;;;1.15;1.05;;;18.10;83.30;;;21.82;43.02;94535.13;6074729;19;20018;-61
2021/11/14 05:37:24;;;;;;;1.05;1.00;;;18.10;83.40;;;21.82;42.91;94532.41;6068131;19;20018;-61
2021/11/14 05:39:25;;;;;;;1.77;1.10;;;18.10;83.20;;;21.82;42.69;94535.94;6077839;19;20018;-61
2021/11/14 05:41:26;;;;;;;1.10;1.00;;;18.10;83.30;;;21.82;42.67;94535.13;6083168;19;21580;-61
2021/11/14 05:43:27;;;;;;;1.17;1.08;;;18.10;83.10;;;21.82;42.95;94540.56;6071734;19;21747;-62
2021/11/14 05:45:29;;;;;;;1.08;0.98;;;18.10;83.10;;;21.81;42.78;94534.34;6081709;19;21066;-62
2021/11/14 05:47:29;;;;;;;2.28;1.05;;;18.10;83.00;;;21.81;42.57;94542.47;6080556;19;21066;-62
2021/11/14 05:49:30;;;;;;;1.38;1.27;;;18.10;83.00;;;21.81;42.56;94542.47;6083932;19;20006;-62
2021/11/14 05:51:31;;;;;;;1.23;1.13;;;18.10;83.00;;;21.81;42.57;94541.69;6082892;19;20027;-61
2021/11/14 05:53:32;;;;;;;1.00;0.93;;;18.10;83.00;;;21.79;42.45;94536.59;6095899;19;20015;-62
2021/11/14 05:55:33;;;;;;;1.08;0.98;;;18.10;82.90;;;21.79;42.74;94539.31;6096717;19;20359;-62
2021/11/14 05:57:56;;;;;;;1.02;1.00;;;18.10;82.90;;;21.80;42.58;94540.09;6096553;19;20357;-62
2021/11/14 06:00:05;;;;;;;1.20;1.10;;;18.10;82.90;;;21.79;42.86;94539.31;6091717;19;20237;-62
2021/11/14 06:04:17;;;;;;;1.17;1.08;;;18.10;83.00;;;21.79;43.01;94543.94;6096153;19;20495;-61
2021/11/14 06:06:18;;;;;;;2.20;0.80;;;18.10;82.90;;;21.77;42.95;94544.28;6096330;19;20690;-61
2021/11/14 06:08:22;;;;;;;2.10;0.90;;;18.10;83.00;;;21.77;42.49;94560.56;6098111;19;20478;-62
2021/11/14 06:10:23;;;;;;;1.33;1.10;;;18.10;82.90;;;21.76;43.08;94561.69;6092295;19;23812;-62
2021/11/14 06:12:24;;;;;;;1.10;0.95;;;18.10;82.90;;;21.77;42.68;94559.75;6094279;19;20002;-61
2021/11/14 06:14:25;;;;;;;2.03;0.95;;;18.10;82.90;;;21.77;42.91;94565.19;6097231;19;20529;-61
2021/11/14 06:16:25;;;;;;;1.17;1.08;;;18.10;83.00;;;21.76;42.64;94567.13;6088454;19;20015;-61
2021/11/14 06:18:27;;;;;;;0.90;0.90;;;18.00;83.00;;;21.76;42.96;94563.59;6088942;19;21225;-61
2021/11/14 06:20:28;;;;;;;0.80;0.80;;;18.10;83.20;;;21.76;42.45;94569.03;6093841;19;20038;-61
2021/11/14 06:22:29;;;;;;;0.90;0.90;;;18.10;83.10;;;21.76;42.77;94569.03;6089171;19;20015;-61
2021/11/14 06:24:30;;;;;;;1.20;1.10;;;18.10;83.10;;;21.76;42.78;94569.03;6095691;19;20015;-61
2021/11/14 06:26:31;;;;;;;0.85;0.85;;;18.10;83.30;;;21.77;42.68;94578.75;6097017;19;20501;-61
2021/11/14 06:28:32;;;;;;;1.30;0.85;;;18.10;83.20;;;21.78;42.75;94572.22;6092656;19;20011;-61
2021/11/14 06:30:33;;;;;;;1.38;1.27;;;18.10;83.10;;;21.78;42.73;94583.06;6099063;19;20085;-61
2021/11/14 06:32:33;;;;;;;1.95;0.90;;;18.10;83.30;;;21.79;42.65;94579.22;6101193;19;20014;-61
2021/11/14 06:34:34;;;;;;;1.10;1.00;;;18.10;83.10;;;21.80;42.74;94575.38;6101095;19;21595;-61
2021/11/14 06:36:35;;;;;;;1.05;1.00;;;18.10;83.30;;;21.80;42.66;94573.47;6092617;19;20034;-61
2021/11/14 06:38:36;;;;;;;0.80;0.80;;;18.10;83.10;;;21.81;42.71;94571.53;6098591;19;20363;-61
2021/11/14 06:40:37;;;;;;;0.98;0.98;;;18.10;83.20;;;21.81;42.67;94575.03;6102448;19;20330;-61
2021/11/14 06:42:38;;;;;;;2.15;1.13;;;18.10;83.10;;;21.82;42.64;94570.41;6102299;19;20041;-61
2021/11/14 06:44:38;;;;;;;1.13;1.02;;;18.10;83.10;;;21.82;42.50;94581.25;6101426;19;20009;-61
2021/11/14 06:46:39;;;;;;;0.70;0.70;;;18.10;83.10;;;21.82;42.51;94584.78;6099702;19;20504;-61
2021/11/14 06:48:40;;;;;;;2.28;0.95;;;18.10;83.10;;;21.83;42.66;94585.56;6096642;19;20007;-63
2021/11/14 06:50:41;;;;;;;0.93;0.90;;;18.10;83.20;;;21.82;42.59;94589.41;6106825;19;20019;-61
2021/11/14 06:52:44;;;;;;;0.90;0.90;;;18.10;83.00;;;21.82;42.73;94589.41;6063851;19;20354;-59
2021/11/14 06:54:45;;;;;;;0.88;0.88;;;18.10;83.10;;;21.83;42.67;94591.00;6079672;19;20040;-59
2021/11/14 06:56:46;;;;;;;0.90;0.90;;;18.10;83.10;;;21.81;42.40;94591.31;6070918;19;20022;-59
2021/11/14 06:58:47;;;;;;;1.20;1.10;;;18.10;83.00;;;21.83;42.55;94596.41;6085679;19;20128;-60
2021/11/14 07:00:50;;;;;;;0.95;0.90;;;18.10;83.00;;;21.82;42.69;94594.81;6081965;19;20030;-59
2021/11/14 07:02:51;;;;;;;1.08;0.90;;;18.10;83.00;;;21.83;42.62;94591.00;6073558;19;20011;-59
2021/11/14 07:04:52;;;;;;;1.05;1.00;;;18.10;83.00;;;21.82;42.75;94592.91;6079152;19;20102;-60
2021/11/14 07:06:53;;;;;;;0.80;0.80;;;18.10;82.90;;;21.83;42.51;94593.69;6052841;19;21152;-59
2021/11/14 07:08:53;;;;;;;1.27;1.20;;;18.10;82.90;;;21.83;42.55;94597.22;6063545;19;20003;-59
2021/11/14 07:10:54;;;;;;;0.95;0.95;;;18.10;82.80;;;21.82;42.59;94595.63;6079540;19;20091;-60
2021/11/14 07:12:56;;;;;;;1.50;0.90;;;18.10;82.80;;;21.83;42.64;94599.13;6068195;19;20966;-59
2021/11/14 07:14:56;;;;;;;1.00;0.90;;;18.10;82.80;;;21.81;43.07;94598.66;6071881;19;20078;-60
2021/11/14 07:16:57;;;;;;;0.82;0.82;;;18.10;82.90;;;21.82;42.33;94594.81;6065803;19;20044;-59
2021/11/14 07:18:59;;;;;;;1.20;1.10;;;18.10;82.80;;;21.81;42.36;94594.03;6082224;19;20035;-59
2021/11/14 07:20:59;;;;;;;0.85;0.85;;;18.10;82.70;;;21.82;42.46;94605.69;6079561;19;20018;-60
2021/11/14 07:23:00;;;;;;;1.02;1.00;;;18.10;82.70;;;21.80;42.43;94595.16;6069990;19;20017;-59
2021/11/14 07:25:01;;;;;;;0.90;0.90;;;18.10;82.60;;;21.81;42.50;94595.97;6074990;19;20015;-58
2021/11/14 07:27:04;;;;;;;0.77;0.77;;;18.10;82.60;;;21.82;42.46;94602.97;6055298;19;20010;-58
2021/11/14 07:29:05;;;;;;;0.98;0.90;;;18.10;82.50;;;21.82;42.44;94606.47;6072843;19;20018;-58
2021/11/14 07:31:06;;;;;;;1.25;1.00;;;18.10;82.50;;;21.81;42.51;94599.47;6080788;19;20023;-56
2021/11/14 07:33:06;;;;;;;1.08;1.00;;;18.10;82.40;;;21.81;42.80;94604.09;6058157;19;20007;-58
2021/11/14 07:35:10;;;;;;;1.40;0.70;;;18.10;82.40;;;21.81;42.62;94609.53;6066054;19;20034;-57
2021/11/14 07:37:11;;;;;;;1.08;0.98;;;18.10;82.50;;;21.80;42.63;94607.94;6077222;19;20016;-58
2021/11/14 07:39:12;;;;;;;0.90;0.90;;;18.10;82.40;;;21.79;42.65;94607.16;6072204;19;20086;-58
2021/11/14 07:41:14;;;;;;;1.17;1.08;;;18.10;82.40;;;21.79;42.66;94614.50;6078154;19;20011;-62
2021/11/14 07:43:15;;;;;;;0.85;0.85;;;18.10;82.40;;;21.78;42.64;94610.19;6083949;19;20018;-63
2021/11/14 07:45:20;;;;;;;1.80;0.90;;;18.10;82.60;;;21.78;42.37;94607.47;6089530;19;20014;-61
2021/11/14 07:47:20;;;;;;;0.80;0.80;;;18.10;82.50;;;21.76;42.53;94610.53;6096196;19;20022;-62
2021/11/14 07:49:21;;;;;;;0.85;0.85;;;18.10;82.60;;;21.77;42.35;94616.75;6087574;19;20047;-62
2021/11/14 07:51:23;;;;;;;0.90;0.70;;;18.10;82.60;;;21.77;42.93;94614.81;6096388;19;20038;-62
2021/11/14 07:53:24;;;;;;;1.02;0.90;;;18.10;82.70;;;21.77;42.56;94612.13;6101903;19;20531;-62
2021/11/14 07:55:25;;;;;;;0.98;0.82;;;18.10;82.80;;;21.77;42.67;94603.97;6092558;19;20485;-61
2021/11/14 07:57:26;;;;;;;0.98;0.95;;;18.10;83.30;;;21.78;43.00;94615.63;6089773;19;20017;-63
2021/11/14 07:59:27;;;;;;;0.82;0.82;;;18.10;83.40;;;21.79;42.73;94609.84;6098209;19;20462;-62
2021/11/14 08:01:28;;;;;;;1.02;0.93;;;18.10;83.30;;;21.79;43.07;94615.28;6094709;19;20010;-62
2021/11/14 08:03:32;;;;;;;2.40;0.90;;;18.10;83.60;;;21.80;43.00;94605.22;6097689;19;20017;-62
2021/11/14 08:05:33;;;;;;;0.70;0.70;;;18.10;83.40;;;21.82;43.09;94605.69;6100742;19;20014;-62
2021/11/14 08:07:34;;;;;;;2.38;1.13;;;18.10;83.40;;;21.81;42.60;94596.75;6100790;19;20017;-61
2021/11/14 08:09:36;;;;;;;0.70;0.70;;;18.10;83.40;;;21.83;42.68;94609.97;6093362;19;20033;-61
2021/11/14 08:11:36;;;;;;;1.00;0.90;;;18.10;83.50;;;21.82;43.00;94608.41;6096690;19;20141;-61
2021/11/14 08:13:37;;;;;;;0.98;0.98;;;18.10;83.70;;;21.82;43.14;94611.91;6094292;19;20750;-61
2021/11/14 08:15:38;;;;;;;0.73;0.73;;;18.10;83.60;;;21.83;42.88;94604.56;6096163;19;20022;-62
2021/11/14 08:17:40;;;;;;;0.82;0.80;;;18.10;83.60;;;21.84;42.86;94603.44;6097561;19;20022;-62
2021/11/14 08:19:40;;;;;;;0.90;0.80;;;18.10;83.50;;;21.84;42.92;94608.84;6098058;19;20033;-62
2021/11/14 08:21:41;;;;;;;1.35;0.90;;;18.10;83.50;;;21.83;43.10;94596.41;6094704;19;20015;-62
2021/11/14 08:23:42;;;;;;;1.00;0.90;;;18.10;83.60;;;21.85;43.01;94594.16;6088582;19;20355;-63
2021/11/14 08:25:44;;;;;;;1.30;1.00;;;18.10;83.40;;;21.83;42.93;94586.34;6093629;19;20011;-61
2021/11/14 08:27:46;;;;;;;1.00;0.90;;;18.10;83.40;;;21.84;42.97;94592.56;6096182;19;20019;-61
2021/11/14 08:29:47;;;;;;;0.98;0.95;;;18.20;83.50;;;21.84;42.65;94592.56;6099191;19;20025;-62
2021/11/14 08:31:48;;;;;;;2.47;1.00;;;18.10;83.40;;;21.83;42.96;94593.69;6100505;19;20015;-62
2021/11/14 08:33:49;;;;;;;2.25;1.00;;;18.20;83.60;;;21.83;42.89;94597.22;6101333;19;20011;-62
2021/11/14 08:35:50;;;;;;;1.10;1.00;;;18.20;83.50;;;21.83;43.01;94597.22;6099481;19;20018;-61